sensor_id;sensor_type;location;lat;lon;timestamp;pressure;altitude;pressure_sealevel;temperature;humidity
8047;BME280;67150;42.516;23.358;2023-05-14T00:00:14;88926.25;;;10.38;70.71
8047;BME280;67150;42.516;23.358;2023-05-14T00:02:41;88914.53;;;10.37;70.48
8047;BME280;67150;42.516;23.358;2023-05-14T00:05:09;88915.28;;;10.39;70.24
8047;BME280;67150;42.516;23.358;2023-05-14T00:07:37;88918.50;;;10.41;70.43
8047;BME280;67150;42.516;23.358;2023-05-14T00:10:05;88921.00;;;10.41;70.50
8047;BME280;67150;42.516;23.358;2023-05-14T00:12:33;88911.84;;;10.40;70.16
8047;BME280;67150;42.516;23.358;2023-05-14T00:15:00;88909.22;;;10.41;70.29
8047;BME280;67150;42.516;23.358;2023-05-14T00:17:27;88915.09;;;10.42;70.50
8047;BME280;67150;42.516;23.358;2023-05-14T00:19:55;88905.00;;;10.42;70.48
8047;BME280;67150;42.516;23.358;2023-05-14T00:22:22;88899.03;;;10.43;70.29
8047;BME280;67150;42.516;23.358;2023-05-14T00:24:51;88898.97;;;10.44;70.43
8047;BME280;67150;42.516;23.358;2023-05-14T00:27:18;88883.13;;;10.42;70.31
8047;BME280;67150;42.516;23.358;2023-05-14T00:29:45;88884.53;;;10.46;70.19
8047;BME280;67150;42.516;23.358;2023-05-14T00:32:12;88882.13;;;10.45;70.24
8047;BME280;67150;42.516;23.358;2023-05-14T00:34:40;88883.72;;;10.46;70.64
8047;BME280;67150;42.516;23.358;2023-05-14T00:37:07;88879.50;;;10.46;70.15
8047;BME280;67150;42.516;23.358;2023-05-14T00:39:34;88875.28;;;10.47;70.21
8047;BME280;67150;42.516;23.358;2023-05-14T00:42:03;88881.00;;;10.49;70.19
8047;BME280;67150;42.516;23.358;2023-05-14T00:44:31;88869.22;;;10.49;70.14
8047;BME280;67150;42.516;23.358;2023-05-14T00:46:58;88865.19;;;10.47;70.34
8047;BME280;67150;42.516;23.358;2023-05-14T00:49:26;88867.59;;;10.48;70.32
8047;BME280;67150;42.516;23.358;2023-05-14T00:51:53;88873.44;;;10.49;69.94
8047;BME280;67150;42.516;23.358;2023-05-14T00:54:23;88875.88;;;10.50;70.21
8047;BME280;67150;42.516;23.358;2023-05-14T00:56:51;88862.28;;;10.53;70.28
8047;BME280;67150;42.516;23.358;2023-05-14T00:59:21;88858.94;;;10.52;70.21
8047;BME280;67150;42.516;23.358;2023-05-14T01:01:48;88857.22;;;10.53;70.28
8047;BME280;67150;42.516;23.358;2023-05-14T01:04:16;88853.22;;;10.50;70.05
8047;BME280;67150;42.516;23.358;2023-05-14T01:06:51;88849.69;;;10.53;69.72
8047;BME280;67150;42.516;23.358;2023-05-14T01:09:25;88849.69;;;10.53;69.83
8047;BME280;67150;42.516;23.358;2023-05-14T01:12:01;88853.00;;;10.53;70.02
8047;BME280;67150;42.516;23.358;2023-05-14T01:14:39;88859.25;;;10.48;69.94
8047;BME280;67150;42.516;23.358;2023-05-14T01:17:10;88858.34;;;10.49;69.88
8047;BME280;67150;42.516;23.358;2023-05-14T01:19:40;88865.81;;;10.50;69.72
8047;BME280;67150;42.516;23.358;2023-05-14T01:22:09;88871.63;;;10.51;69.88
8047;BME280;67150;42.516;23.358;2023-05-14T01:24:36;88870.94;;;10.49;69.88
8047;BME280;67150;42.516;23.358;2023-05-14T01:30:02;88862.34;;;10.51;69.74
8047;BME280;67150;42.516;23.358;2023-05-14T01:32:34;88869.22;;;10.49;69.68
8047;BME280;67150;42.516;23.358;2023-05-14T01:35:02;88867.59;;;10.48;69.63
8047;BME280;67150;42.516;23.358;2023-05-14T01:37:32;88875.97;;;10.49;69.42
8047;BME280;67150;42.516;23.358;2023-05-14T01:39:59;88875.06;;;10.50;69.46
8047;BME280;67150;42.516;23.358;2023-05-14T01:42:27;88869.03;;;10.52;69.91
8047;BME280;67150;42.516;23.358;2023-05-14T01:44:55;88872.44;;;10.51;69.43
8047;BME280;67150;42.516;23.358;2023-05-14T01:47:22;88874.06;;;10.52;69.57
8047;BME280;67150;42.516;23.358;2023-05-14T01:49:50;88868.22;;;10.52;69.50
8047;BME280;67150;42.516;23.358;2023-05-14T01:52:17;88880.72;;;10.53;69.35
8047;BME280;67150;42.516;23.358;2023-05-14T01:54:47;88880.72;;;10.53;69.31
8047;BME280;67150;42.516;23.358;2023-05-14T01:57:15;88882.44;;;10.53;69.33
8047;BME280;67150;42.516;23.358;2023-05-14T01:59:42;88881.50;;;10.54;69.41
8047;BME280;67150;42.516;23.358;2023-05-14T02:02:09;88878.09;;;10.55;69.30
8047;BME280;67150;42.516;23.358;2023-05-14T02:04:36;88881.41;;;10.55;69.31
8047;BME280;67150;42.516;23.358;2023-05-14T02:07:04;88882.31;;;10.54;69.39
8047;BME280;67150;42.516;23.358;2023-05-14T02:09:31;88874.88;;;10.53;69.65
8047;BME280;67150;42.516;23.358;2023-05-14T02:12:00;88881.50;;;10.54;69.57
8047;BME280;67150;42.516;23.358;2023-05-14T02:14:27;88876.38;;;10.55;69.56
8047;BME280;67150;42.516;23.358;2023-05-14T02:16:54;88887.56;;;10.51;69.20
8047;BME280;67150;42.516;23.358;2023-05-14T02:19:21;88889.19;;;10.52;69.18
8047;BME280;67150;42.516;23.358;2023-05-14T02:21:49;88890.00;;;10.53;69.42
8047;BME280;67150;42.516;23.358;2023-05-14T02:24:16;88887.34;;;10.54;69.40
8047;BME280;67150;42.516;23.358;2023-05-14T02:26:43;88884.94;;;10.53;69.42
8047;BME280;67150;42.516;23.358;2023-05-14T02:29:12;88880.00;;;10.51;69.51
8047;BME280;67150;42.516;23.358;2023-05-14T02:31:40;88882.44;;;10.53;69.46
8047;BME280;67150;42.516;23.358;2023-05-14T02:34:08;88886.53;;;10.54;69.42
8047;BME280;67150;42.516;23.358;2023-05-14T02:36:35;88885.97;;;10.50;69.38
8047;BME280;67150;42.516;23.358;2023-05-14T02:39:03;88875.06;;;10.50;69.45
8047;BME280;67150;42.516;23.358;2023-05-14T02:41:30;88871.63;;;10.51;69.28
8047;BME280;67150;42.516;23.358;2023-05-14T02:43:57;88884.22;;;10.51;69.34
8047;BME280;67150;42.516;23.358;2023-05-14T02:46:26;88885.97;;;10.50;69.31
8047;BME280;67150;42.516;23.358;2023-05-14T02:48:53;88890.19;;;10.50;69.15
8047;BME280;67150;42.516;23.358;2023-05-14T02:51:20;88891.00;;;10.50;69.01
8047;BME280;67150;42.516;23.358;2023-05-14T02:53:48;88904.28;;;10.52;69.15
8047;BME280;67150;42.516;23.358;2023-05-14T02:56:15;88899.34;;;10.51;69.29
8047;BME280;67150;42.516;23.358;2023-05-14T02:58:42;88900.97;;;10.52;69.22
8047;BME280;67150;42.516;23.358;2023-05-14T03:01:10;88903.47;;;10.52;69.16
8047;BME280;67150;42.516;23.358;2023-05-14T03:03:38;88903.47;;;10.52;69.17
8047;BME280;67150;42.516;23.358;2023-05-14T03:06:06;88892.59;;;10.51;69.08
8047;BME280;67150;42.516;23.358;2023-05-14T03:08:33;88888.38;;;10.52;69.14
8047;BME280;67150;42.516;23.358;2023-05-14T03:11:01;88884.03;;;10.54;69.12
8047;BME280;67150;42.516;23.358;2023-05-14T03:13:28;88865.69;;;10.52;69.28
8047;BME280;67150;42.516;23.358;2023-05-14T03:15:55;88875.69;;;10.53;69.22
8047;BME280;67150;42.516;23.358;2023-05-14T03:18:22;88872.34;;;10.53;69.00
8047;BME280;67150;42.516;23.358;2023-05-14T03:20:51;88881.50;;;10.54;68.94
8047;BME280;67150;42.516;23.358;2023-05-14T03:23:18;88885.75;;;10.53;68.95
8047;BME280;67150;42.516;23.358;2023-05-14T03:25:46;88884.03;;;10.54;69.31
8047;BME280;67150;42.516;23.358;2023-05-14T03:28:13;88884.84;;;10.54;69.16
8047;BME280;67150;42.516;23.358;2023-05-14T03:30:40;88885.66;;;10.55;69.31
8047;BME280;67150;42.516;23.358;2023-05-14T03:33:08;88876.47;;;10.54;69.01
8047;BME280;67150;42.516;23.358;2023-05-14T03:35:35;88870.13;;;10.48;69.31
8047;BME280;67150;42.516;23.358;2023-05-14T03:38:04;88886.44;;;10.55;69.22
8047;BME280;67150;42.516;23.358;2023-05-14T03:40:31;88875.47;;;10.56;69.26
8047;BME280;67150;42.516;23.358;2023-05-14T03:42:58;88871.22;;;10.57;69.30
8047;BME280;67150;42.516;23.358;2023-05-14T03:45:25;88878.78;;;10.57;69.29
8047;BME280;67150;42.516;23.358;2023-05-14T03:47:55;88883.81;;;10.57;69.33
8047;BME280;67150;42.516;23.358;2023-05-14T03:50:22;88881.31;;;10.57;68.96
8047;BME280;67150;42.516;23.358;2023-05-14T03:52:50;88878.78;;;10.57;69.34
8047;BME280;67150;42.516;23.358;2023-05-14T03:55:20;88878.78;;;10.57;68.90
8047;BME280;67150;42.516;23.358;2023-05-14T03:57:47;88881.41;;;10.55;69.04
8047;BME280;67150;42.516;23.358;2023-05-14T04:00:15;88867.00;;;10.57;69.09
8047;BME280;67150;42.516;23.358;2023-05-14T04:02:42;88877.00;;;10.59;68.92
8047;BME280;67150;42.516;23.358;2023-05-14T04:05:09;88884.53;;;10.59;69.22
8047;BME280;67150;42.516;23.358;2023-05-14T04:07:37;88879.50;;;10.59;69.11
8047;BME280;67150;42.516;23.358;2023-05-14T04:10:05;88885.34;;;10.59;68.96
8047;BME280;67150;42.516;23.358;2023-05-14T04:12:37;88888.56;;;10.61;68.75
8047;BME280;67150;42.516;23.358;2023-05-14T04:15:05;88890.28;;;10.61;68.92
8047;BME280;67150;42.516;23.358;2023-05-14T04:17:32;88891.19;;;10.60;68.72
8047;BME280;67150;42.516;23.358;2023-05-14T04:20:00;88893.69;;;10.60;69.00
8047;BME280;67150;42.516;23.358;2023-05-14T04:22:27;88903.00;;;10.59;68.98
8047;BME280;67150;42.516;23.358;2023-05-14T04:24:54;88904.69;;;10.59;68.89
8047;BME280;67150;42.516;23.358;2023-05-14T04:27:22;88905.50;;;10.59;68.75
8047;BME280;67150;42.516;23.358;2023-05-14T04:29:50;88906.28;;;10.60;68.91
8047;BME280;67150;42.516;23.358;2023-05-14T04:32:18;88911.34;;;10.60;68.80
8047;BME280;67150;42.516;23.358;2023-05-14T04:34:46;88907.50;;;10.54;68.90
8047;BME280;67150;42.516;23.358;2023-05-14T04:37:13;88915.59;;;10.59;68.86
8047;BME280;67150;42.516;23.358;2023-05-14T04:39:40;88914.78;;;10.59;68.84
8047;BME280;67150;42.516;23.358;2023-05-14T04:42:08;88920.50;;;10.61;68.78
8047;BME280;67150;42.516;23.358;2023-05-14T04:44:35;88915.59;;;10.59;68.82
8047;BME280;67150;42.516;23.358;2023-05-14T04:47:04;88906.28;;;10.60;68.97
8047;BME280;67150;42.516;23.358;2023-05-14T04:49:32;88909.63;;;10.60;68.87
8047;BME280;67150;42.516;23.358;2023-05-14T04:52:00;88925.56;;;10.61;68.89
8047;BME280;67150;42.516;23.358;2023-05-14T04:54:27;88936.44;;;10.61;69.02
8047;BME280;67150;42.516;23.358;2023-05-14T04:56:54;88934.81;;;10.60;68.85
8047;BME280;67150;42.516;23.358;2023-05-14T04:59:22;88929.69;;;10.62;69.11
8047;BME280;67150;42.516;23.358;2023-05-14T05:01:49;88933.13;;;10.61;69.22
8047;BME280;67150;42.516;23.358;2023-05-14T05:04:18;88939.78;;;10.62;69.16
8047;BME280;67150;42.516;23.358;2023-05-14T05:06:45;88943.09;;;10.62;69.12
8047;BME280;67150;42.516;23.358;2023-05-14T05:09:13;88947.34;;;10.62;69.20
8047;BME280;67150;42.516;23.358;2023-05-14T05:11:41;88940.59;;;10.62;69.15
8047;BME280;67150;42.516;23.358;2023-05-14T05:14:08;88953.97;;;10.63;69.19
8047;BME280;67150;42.516;23.358;2023-05-14T05:16:35;88958.13;;;10.64;69.34
8047;BME280;67150;42.516;23.358;2023-05-14T05:19:02;88952.19;;;10.65;69.26
8047;BME280;67150;42.516;23.358;2023-05-14T05:21:31;88959.75;;;10.65;69.46
8047;BME280;67150;42.516;23.358;2023-05-14T05:23:58;88961.34;;;10.66;69.46
8047;BME280;67150;42.516;23.358;2023-05-14T05:26:26;88960.63;;;10.64;69.68
8047;BME280;67150;42.516;23.358;2023-05-14T05:28:56;88970.91;;;10.61;69.49
8047;BME280;67150;42.516;23.358;2023-05-14T05:31:23;88966.09;;;12.87;82.53
8047;BME280;67150;42.516;23.358;2023-05-14T05:33:50;88964.47;;;13.32;75.25
8047;BME280;67150;42.516;23.358;2023-05-14T05:36:18;88962.38;;;12.69;73.90
8047;BME280;67150;42.516;23.358;2023-05-14T05:38:46;88963.16;;;12.23;72.44
8047;BME280;67150;42.516;23.358;2023-05-14T05:41:14;88966.13;;;11.94;71.75
8047;BME280;67150;42.516;23.358;2023-05-14T05:43:41;88965.88;;;11.73;71.33
8047;BME280;67150;42.516;23.358;2023-05-14T05:46:08;88961.97;;;11.56;71.02
8047;BME280;67150;42.516;23.358;2023-05-14T05:48:36;88966.13;;;11.45;71.02
8047;BME280;67150;42.516;23.358;2023-05-14T05:51:03;88965.13;;;11.35;70.94
8047;BME280;67150;42.516;23.358;2023-05-14T05:53:31;88973.22;;;11.27;71.03
8047;BME280;67150;42.516;23.358;2023-05-14T05:55:59;88967.78;;;11.20;70.98
8047;BME280;67150;42.516;23.358;2023-05-14T05:58:26;88964.75;;;11.15;71.05
8047;BME280;67150;42.516;23.358;2023-05-14T06:00:54;88959.22;;;11.10;70.77
8047;BME280;67150;42.516;23.358;2023-05-14T06:03:22;88961.31;;;11.04;70.80
8047;BME280;67150;42.516;23.358;2023-05-14T06:05:49;88953.19;;;11.00;70.87
8047;BME280;67150;42.516;23.358;2023-05-14T06:08:17;88958.31;;;10.99;70.78
8047;BME280;67150;42.516;23.358;2023-05-14T06:10:44;88968.72;;;10.94;70.80
8047;BME280;67150;42.516;23.358;2023-05-14T06:13:13;88963.88;;;10.91;70.91
8047;BME280;67150;42.516;23.358;2023-05-14T06:15:40;88971.53;;;10.90;70.67
8047;BME280;67150;42.516;23.358;2023-05-14T06:18:08;88959.13;;;10.87;70.63
8047;BME280;67150;42.516;23.358;2023-05-14T06:20:35;88960.94;;;10.85;70.79
8047;BME280;67150;42.516;23.358;2023-05-14T06:23:02;88954.34;;;11.82;76.80
8047;BME280;67150;42.516;23.358;2023-05-14T06:25:30;88948.34;;;11.46;74.37
8047;BME280;67150;42.516;23.358;2023-05-14T06:27:57;88932.66;;;11.30;72.97
8047;BME280;67150;42.516;23.358;2023-05-14T06:30:26;88929.22;;;11.18;72.15
8047;BME280;67150;42.516;23.358;2023-05-14T06:32:53;88934.81;;;11.11;72.07
8047;BME280;67150;42.516;23.358;2023-05-14T06:35:20;88948.63;;;11.05;71.59
8047;BME280;67150;42.516;23.358;2023-05-14T06:37:48;88943.78;;;11.02;71.49
8047;BME280;67150;42.516;23.358;2023-05-14T06:40:15;88908.53;;;10.77;71.41
8047;BME280;67150;42.516;23.358;2023-05-14T06:42:42;88959.31;;;10.96;71.25
8047;BME280;67150;42.516;23.358;2023-05-14T06:45:10;88955.28;;;10.94;71.29
8047;BME280;67150;42.516;23.358;2023-05-14T06:47:39;88958.03;;;10.91;71.21
8047;BME280;67150;42.516;23.358;2023-05-14T06:50:07;88957.22;;;10.90;70.98
8047;BME280;67150;42.516;23.358;2023-05-14T06:52:35;88939.75;;;10.87;71.17
8047;BME280;67150;42.516;23.358;2023-05-14T06:55:03;88939.75;;;10.87;70.92
8047;BME280;67150;42.516;23.358;2023-05-14T06:57:30;88942.28;;;10.87;70.96
8047;BME280;67150;42.516;23.358;2023-05-14T06:59:58;88935.63;;;10.86;70.95
8047;BME280;67150;42.516;23.358;2023-05-14T07:02:26;88929.00;;;10.85;71.05
8047;BME280;67150;42.516;23.358;2023-05-14T07:04:54;88927.28;;;10.86;70.65
8047;BME280;67150;42.516;23.358;2023-05-14T07:07:21;88929.00;;;10.85;71.03
8047;BME280;67150;42.516;23.358;2023-05-14T07:09:49;88926.34;;;10.87;71.03
8047;BME280;67150;42.516;23.358;2023-05-14T07:12:16;88927.28;;;10.86;71.02
8047;BME280;67150;42.516;23.358;2023-05-14T07:14:43;88932.19;;;10.87;70.95
8047;BME280;67150;42.516;23.358;2023-05-14T07:17:11;88938.13;;;10.86;70.92
8047;BME280;67150;42.516;23.358;2023-05-14T07:19:38;88950.16;;;10.83;70.86
8047;BME280;67150;42.516;23.358;2023-05-14T07:22:07;88966.31;;;10.80;71.04
8047;BME280;67150;42.516;23.358;2023-05-14T07:24:34;88969.81;;;10.78;70.73
8047;BME280;67150;42.516;23.358;2023-05-14T07:27:01;88970.63;;;10.78;70.96
8047;BME280;67150;42.516;23.358;2023-05-14T07:29:29;88960.53;;;10.78;70.89
8047;BME280;67150;42.516;23.358;2023-05-14T07:31:59;88956.31;;;10.79;70.83
8047;BME280;67150;42.516;23.358;2023-05-14T07:34:26;88961.34;;;10.79;70.96
8047;BME280;67150;42.516;23.358;2023-05-14T07:36:53;88960.44;;;10.80;70.79
8047;BME280;67150;42.516;23.358;2023-05-14T07:39:22;88961.03;;;10.83;70.94
8047;BME280;67150;42.516;23.358;2023-05-14T07:41:50;88959.13;;;11.97;74.31
8047;BME280;67150;42.516;23.358;2023-05-14T07:44:19;88954.97;;;12.44;73.44
8047;BME280;67150;42.516;23.358;2023-05-14T07:46:46;88927.28;;;12.18;71.62
8047;BME280;67150;42.516;23.358;2023-05-14T07:49:14;88954.72;;;11.88;72.23
8047;BME280;67150;42.516;23.358;2023-05-14T07:51:41;88970.63;;;11.65;71.90
8047;BME280;67150;42.516;23.358;2023-05-14T07:54:08;88969.16;;;11.50;71.54
8047;BME280;67150;42.516;23.358;2023-05-14T07:56:37;88976.66;;;11.39;71.44
8047;BME280;67150;42.516;23.358;2023-05-14T07:59:05;88976.31;;;11.31;71.37
8047;BME280;67150;42.516;23.358;2023-05-14T08:01:32;88975.84;;;11.25;71.33
8047;BME280;67150;42.516;23.358;2023-05-14T08:04:00;88975.34;;;11.20;71.08
8047;BME280;67150;42.516;23.358;2023-05-14T08:06:27;88975.56;;;11.17;71.14
8047;BME280;67150;42.516;23.358;2023-05-14T08:08:54;88963.97;;;11.15;71.05
8047;BME280;67150;42.516;23.358;2023-05-14T08:11:21;88957.28;;;11.14;70.90
8047;BME280;67150;42.516;23.358;2023-05-14T08:13:51;88964.25;;;11.10;71.01
8047;BME280;67150;42.516;23.358;2023-05-14T08:16:18;88968.59;;;11.08;71.06
8047;BME280;67150;42.516;23.358;2023-05-14T08:18:45;88955.38;;;11.05;71.04
8047;BME280;67150;42.516;23.358;2023-05-14T08:21:13;88958.34;;;11.48;72.46
8047;BME280;67150;42.516;23.358;2023-05-14T08:23:40;88948.16;;;11.37;71.81
8047;BME280;67150;42.516;23.358;2023-05-14T08:26:07;88948.78;;;11.27;71.57
8047;BME280;67150;42.516;23.358;2023-05-14T08:28:34;88952.56;;;11.71;72.41
8047;BME280;67150;42.516;23.358;2023-05-14T08:31:03;88952.38;;;11.49;71.59
8047;BME280;67150;42.516;23.358;2023-05-14T08:33:31;88944.81;;;11.49;70.90
8047;BME280;67150;42.516;23.358;2023-05-14T08:35:58;88948.50;;;11.32;70.92
8047;BME280;67150;42.516;23.358;2023-05-14T08:38:26;88955.66;;;11.25;71.04
8047;BME280;67150;42.516;23.358;2023-05-14T08:40:55;88945.56;;;11.25;71.02
8047;BME280;67150;42.516;23.358;2023-05-14T08:43:25;88930.63;;;11.35;70.60
8047;BME280;67150;42.516;23.358;2023-05-14T08:45:57;88923.97;;;11.21;70.91
8047;BME280;67150;42.516;23.358;2023-05-14T08:48:28;88919.97;;;11.19;70.82
8047;BME280;67150;42.516;23.358;2023-05-14T08:50:58;88911.69;;;11.17;70.71
8047;BME280;67150;42.516;23.358;2023-05-14T08:53:25;88932.19;;;11.12;70.98
8047;BME280;67150;42.516;23.358;2023-05-14T08:55:53;88923.41;;;11.18;70.90
8047;BME280;67150;42.516;23.358;2023-05-14T08:58:20;88930.25;;;11.16;70.89
8047;BME280;67150;42.516;23.358;2023-05-14T09:00:48;88913.75;;;12.19;76.55
8047;BME280;67150;42.516;23.358;2023-05-14T09:05:52;88899.00;;;13.16;69.45
8047;BME280;67150;42.516;23.358;2023-05-14T09:08:20;88929.50;;;13.26;68.98
8047;BME280;67150;42.516;23.358;2023-05-14T09:10:48;88934.66;;;13.24;68.50
8047;BME280;67150;42.516;23.358;2023-05-14T09:13:15;88927.53;;;13.18;68.26
8047;BME280;67150;42.516;23.358;2023-05-14T09:15:45;88926.63;;;13.19;68.28
8047;BME280;67150;42.516;23.358;2023-05-14T09:18:14;88930.28;;;13.15;67.84
8047;BME280;67150;42.516;23.358;2023-05-14T09:20:41;88929.81;;;13.21;67.80
8047;BME280;67150;42.516;23.358;2023-05-14T09:23:10;88933.16;;;13.22;67.56
8047;BME280;67150;42.516;23.358;2023-05-14T09:25:38;88933.63;;;13.27;67.28
8047;BME280;67150;42.516;23.358;2023-05-14T09:28:05;88918.69;;;13.24;67.10
8047;BME280;67150;42.516;23.358;2023-05-14T09:30:36;88915.59;;;13.20;66.93
8047;BME280;67150;42.516;23.358;2023-05-14T09:33:04;88922.00;;;13.24;66.84
8047;BME280;67150;42.516;23.358;2023-05-14T09:35:37;88924.75;;;13.21;66.70
8047;BME280;67150;42.516;23.358;2023-05-14T09:38:09;88917.06;;;13.23;66.58
8047;BME280;67150;42.516;23.358;2023-05-14T09:40:36;88922.72;;;13.26;66.34
8047;BME280;67150;42.516;23.358;2023-05-14T09:43:04;88923.16;;;13.20;66.52
8047;BME280;67150;42.516;23.358;2023-05-14T09:45:31;88921.09;;;13.25;66.23
8047;BME280;67150;42.516;23.358;2023-05-14T09:47:58;88912.59;;;13.26;65.99
8047;BME280;67150;42.516;23.358;2023-05-14T09:50:26;88901.31;;;13.19;65.96
8047;BME280;67150;42.516;23.358;2023-05-14T09:52:54;88890.28;;;13.20;65.99
8047;BME280;67150;42.516;23.358;2023-05-14T09:55:23;88892.09;;;13.18;65.86
8047;BME280;67150;42.516;23.358;2023-05-14T09:57:51;88894.63;;;13.18;65.94
8047;BME280;67150;42.516;23.358;2023-05-14T10:00:19;88896.25;;;13.19;65.76
8047;BME280;67150;42.516;23.358;2023-05-14T10:02:47;88882.78;;;13.19;65.77
8047;BME280;67150;42.516;23.358;2023-05-14T10:05:18;88882.91;;;13.17;65.73
8047;BME280;67150;42.516;23.358;2023-05-14T10:07:47;88890.38;;;13.19;65.69
8047;BME280;67150;42.516;23.358;2023-05-14T10:10:17;88863.13;;;13.11;65.36
8047;BME280;67150;42.516;23.358;2023-05-14T10:12:50;88880.16;;;13.20;65.46
8047;BME280;67150;42.516;23.358;2023-05-14T10:15:21;88876.13;;;13.18;65.52
8047;BME280;67150;42.516;23.358;2023-05-14T10:17:55;88870.94;;;13.19;65.37
8047;BME280;67150;42.516;23.358;2023-05-14T10:20:23;88861.63;;;13.20;65.41
8047;BME280;67150;42.516;23.358;2023-05-14T10:22:53;88866.03;;;13.18;65.33
8047;BME280;67150;42.516;23.358;2023-05-14T10:25:20;88878.66;;;13.18;65.42
8047;BME280;67150;42.516;23.358;2023-05-14T10:27:49;88879.69;;;13.15;65.31
8047;BME280;67150;42.516;23.358;2023-05-14T10:30:20;88863.72;;;13.15;65.22
8047;BME280;67150;42.516;23.358;2023-05-14T10:32:47;88870.38;;;13.16;65.26
8047;BME280;67150;42.516;23.358;2023-05-14T10:35:16;88867.16;;;13.14;65.33
8047;BME280;67150;42.516;23.358;2023-05-14T10:37:45;88863.94;;;13.12;65.39
8047;BME280;67150;42.516;23.358;2023-05-14T10:40:12;88874.31;;;13.09;65.29
8047;BME280;67150;42.516;23.358;2023-05-14T10:42:40;88891.88;;;13.10;65.32
8047;BME280;67150;42.516;23.358;2023-05-14T10:45:11;88893.94;;;13.05;65.35
8047;BME280;67150;42.516;23.358;2023-05-14T10:47:43;88890.50;;;13.06;65.42
8047;BME280;67150;42.516;23.358;2023-05-14T10:50:13;88888.66;;;13.08;65.30
8047;BME280;67150;42.516;23.358;2023-05-14T10:52:41;88893.03;;;13.06;65.32
8047;BME280;67150;42.516;23.358;2023-05-14T10:55:12;88904.94;;;13.04;65.34
8047;BME280;67150;42.516;23.358;2023-05-14T10:57:42;88882.09;;;13.06;65.33
8047;BME280;67150;42.516;23.358;2023-05-14T11:00:13;88873.69;;;13.05;65.22
8047;BME280;67150;42.516;23.358;2023-05-14T11:02:42;88868.63;;;13.05;65.19
8047;BME280;67150;42.516;23.358;2023-05-14T11:05:12;88872.06;;;13.04;65.24
8047;BME280;67150;42.516;23.358;2023-05-14T11:07:41;88873.91;;;13.02;65.17
8047;BME280;67150;42.516;23.358;2023-05-14T11:10:10;88866.34;;;13.02;65.25
8047;BME280;67150;42.516;23.358;2023-05-14T11:12:39;88863.00;;;13.02;65.38
8047;BME280;67150;42.516;23.358;2023-05-14T11:15:08;88867.25;;;13.01;65.33
8047;BME280;67150;42.516;23.358;2023-05-14T11:17:39;88866.56;;;12.99;64.95
8047;BME280;67150;42.516;23.358;2023-05-14T11:20:08;88870.72;;;13.00;65.34
8047;BME280;67150;42.516;23.358;2023-05-14T11:22:37;88865.75;;;12.99;65.29
8047;BME280;67150;42.516;23.358;2023-05-14T11:25:06;88876.78;;;12.98;65.33
8047;BME280;67150;42.516;23.358;2023-05-14T11:27:34;88865.66;;;13.00;65.34
8047;BME280;67150;42.516;23.358;2023-05-14T11:30:02;88857.59;;;12.95;65.50
8047;BME280;67150;42.516;23.358;2023-05-14T11:32:31;88865.06;;;12.97;65.38
8047;BME280;67150;42.516;23.358;2023-05-14T11:35:00;88863.59;;;12.94;65.40
8047;BME280;67150;42.516;23.358;2023-05-14T11:37:27;88851.97;;;12.91;65.47
8047;BME280;67150;42.516;23.358;2023-05-14T11:39:58;88859.44;;;12.93;65.54
8047;BME280;67150;42.516;23.358;2023-05-14T11:42:26;88856.00;;;12.94;65.50
8047;BME280;67150;42.516;23.358;2023-05-14T11:44:53;88856.78;;;12.94;65.53
8047;BME280;67150;42.516;23.358;2023-05-14T11:47:21;88855.41;;;12.90;65.70
8047;BME280;67150;42.516;23.358;2023-05-14T11:49:48;88852.31;;;12.87;65.69
8047;BME280;67150;42.516;23.358;2023-05-14T11:52:17;88845.41;;;12.89;65.76
8047;BME280;67150;42.516;23.358;2023-05-14T11:54:46;88856.22;;;12.91;65.73
8047;BME280;67150;42.516;23.358;2023-05-14T11:57:17;88841.06;;;12.91;65.69
8047;BME280;67150;42.516;23.358;2023-05-14T11:59:45;88842.09;;;12.88;65.70
8047;BME280;67150;42.516;23.358;2023-05-14T12:02:14;88833.69;;;12.88;65.73
8047;BME280;67150;42.516;23.358;2023-05-14T12:04:43;88834.59;;;12.87;65.66
8047;BME280;67150;42.516;23.358;2023-05-14T12:07:11;88827.00;;;12.87;65.65
8047;BME280;67150;42.516;23.358;2023-05-14T12:09:42;88825.53;;;12.84;65.93
8047;BME280;67150;42.516;23.358;2023-05-14T12:12:14;88824.50;;;12.87;65.76
8047;BME280;67150;42.516;23.358;2023-05-14T12:14:42;88828.72;;;12.86;65.75
8047;BME280;67150;42.516;23.358;2023-05-14T12:17:14;88809.78;;;12.81;65.79
8047;BME280;67150;42.516;23.358;2023-05-14T12:19:43;88800.03;;;12.76;65.83
8047;BME280;67150;42.516;23.358;2023-05-14T12:22:11;88797.81;;;12.83;65.85
8047;BME280;67150;42.516;23.358;2023-05-14T12:24:42;88812.19;;;12.82;65.94
8047;BME280;67150;42.516;23.358;2023-05-14T12:27:09;88802.88;;;12.83;65.86
8047;BME280;67150;42.516;23.358;2023-05-14T12:29:37;88799.66;;;12.81;66.08
8047;BME280;67150;42.516;23.358;2023-05-14T12:32:08;88803.09;;;12.80;65.89
8047;BME280;67150;42.516;23.358;2023-05-14T12:34:36;88794.38;;;12.84;65.81
8047;BME280;67150;42.516;23.358;2023-05-14T12:37:04;88791.97;;;12.82;65.94
8047;BME280;67150;42.516;23.358;2023-05-14T12:39:33;88776.91;;;12.81;65.92
8047;BME280;67150;42.516;23.358;2023-05-14T12:42:02;88796.22;;;12.82;65.83
8047;BME280;67150;42.516;23.358;2023-05-14T12:44:29;88787.94;;;12.80;66.04
8047;BME280;67150;42.516;23.358;2023-05-14T12:46:56;88789.69;;;12.79;65.86
8047;BME280;67150;42.516;23.358;2023-05-14T12:49:23;88780.34;;;12.80;66.06
8047;BME280;67150;42.516;23.358;2023-05-14T12:51:51;88784.94;;;12.75;66.19
8047;BME280;67150;42.516;23.358;2023-05-14T12:54:18;88778.03;;;12.77;66.13
8047;BME280;67150;42.516;23.358;2023-05-14T12:56:45;88776.22;;;12.79;65.93
8047;BME280;67150;42.516;23.358;2023-05-14T12:59:14;88775.41;;;12.78;65.98
8047;BME280;67150;42.516;23.358;2023-05-14T13:01:42;88784.13;;;12.74;65.91
8047;BME280;67150;42.516;23.358;2023-05-14T13:04:09;88773.47;;;12.71;66.23
8047;BME280;67150;42.516;23.358;2023-05-14T13:06:38;88777.03;;;12.68;66.06
8047;BME280;67150;42.516;23.358;2023-05-14T13:09:05;88787.63;;;12.73;65.94